createdAt,value
2019-02-02T00:04:11.994Z,1.2
2019-02-02T00:10:07.020Z,0.93
2019-02-02T00:16:02.020Z,1.06
2019-02-02T00:21:57.045Z,1.33
2019-02-02T00:27:52.053Z,0.94
2019-02-02T00:33:47.021Z,1.19
2019-02-02T00:39:42.060Z,1.25
2019-02-02T00:45:37.065Z,1.47
2019-02-02T00:51:32.041Z,0.75
2019-02-02T00:57:27.028Z,1.41
2019-02-02T01:03:22.029Z,1.53
2019-02-02T01:09:17.032Z,1.27
2019-02-02T01:15:12.093Z,2.96
2019-02-02T01:21:07.045Z,1.77
2019-02-02T01:27:02.043Z,1.78
2019-02-02T01:32:57.075Z,1.08
2019-02-02T01:38:52.053Z,1.92
2019-02-02T01:44:47.052Z,1.17
2019-02-02T01:50:43.071Z,0.61
2019-02-02T01:56:37.127Z,1.23
2019-02-02T02:02:32.097Z,0.94
2019-02-02T02:08:27.075Z,1.63
2019-02-02T02:14:22.077Z,0.6
2019-02-02T02:20:17.099Z,0.83
2019-02-02T02:26:12.097Z,0.89
2019-02-02T02:32:07.107Z,0.84
2019-02-02T02:38:02.107Z,0.73
2019-02-02T02:43:57.101Z,1.3
2019-02-02T02:49:52.105Z,0.72
2019-02-02T02:55:47.107Z,0.96
2019-02-02T03:01:42.112Z,1.17
2019-02-02T03:07:37.088Z,0.33
2019-02-02T03:13:32.122Z,0.39
2019-02-02T03:19:27.115Z,0.38
2019-02-02T03:25:22.117Z,0.7
2019-02-02T03:31:17.153Z,0.56
2019-02-02T03:37:12.140Z,0.63
2019-02-02T03:43:07.125Z,0.85
2019-02-02T03:49:02.115Z,0.51
2019-02-02T03:54:57.128Z,0.6
2019-02-02T04:00:52.173Z,0.7
2019-02-02T04:06:47.178Z,0.76
2019-02-02T04:12:42.178Z,0.76
2019-02-02T04:18:37.139Z,0.96
2019-02-02T04:24:32.160Z,2.38
2019-02-02T04:30:27.162Z,0.45
2019-02-02T04:36:22.166Z,0.81
2019-02-02T04:42:17.169Z,0.41
2019-02-02T04:48:12.150Z,0.79
2019-02-02T04:54:07.160Z,0.42
2019-02-02T05:00:02.201Z,0.62
2019-02-02T05:05:57.233Z,0.66
2019-02-02T05:11:52.189Z,0.48
2019-02-02T05:17:47.239Z,0.63
2019-02-02T05:23:42.202Z,0.46
2019-02-02T05:29:41.269Z,0.82
2019-02-02T05:35:32.187Z,0.72
2019-02-02T05:41:27.259Z,1.12
2019-02-02T05:47:22.217Z,0.78
2019-02-02T05:53:17.183Z,0.71
2019-02-02T05:59:12.203Z,1.14
2019-02-02T06:05:07.205Z,0.54
2019-02-02T06:11:02.213Z,0.92
2019-02-02T06:16:57.191Z,0.88
2019-02-02T06:22:52.203Z,0.85
2019-02-02T06:28:47.192Z,0.94
2019-02-02T06:34:42.214Z,1.2
2019-02-02T06:40:37.234Z,0.61
2019-02-02T06:46:42.950Z,0.92
2019-02-02T06:52:27.218Z,1.02
2019-02-02T06:58:22.225Z,3.34
2019-02-02T07:04:17.233Z,2.51
2019-02-02T07:10:12.239Z,1.27
2019-02-02T07:16:07.260Z,2.41
2019-02-02T07:22:02.235Z,0.98
2019-02-02T07:27:57.289Z,0.79
2019-02-02T07:33:52.284Z,1.72
2019-02-02T07:39:47.274Z,1.39
2019-02-02T07:45:42.283Z,1.35
2019-02-02T07:51:37.252Z,1.66
2019-02-02T07:57:32.286Z,3.26
2019-02-02T08:03:27.263Z,1.2
2019-02-02T08:09:22.283Z,1.35
2019-02-02T08:15:17.271Z,1.85
2019-02-02T08:21:12.280Z,1.25
2019-02-02T08:27:07.290Z,1.31
2019-02-02T08:33:02.296Z,1.1
2019-02-02T08:38:59.918Z,1.4
2019-02-02T08:44:52.318Z,0.93
2019-02-02T08:50:47.300Z,6.29
2019-02-02T08:56:42.302Z,3.95
2019-02-02T09:02:37.319Z,2.05
2019-02-02T09:08:32.277Z,2.44
2019-02-02T09:14:27.305Z,3.28
2019-02-02T09:20:22.303Z,2.45
2019-02-02T09:26:17.308Z,2.05
2019-02-02T09:32:12.312Z,4.11
2019-02-02T09:38:07.366Z,2.12
2019-02-02T09:44:02.318Z,3.51
2019-02-02T09:49:57.375Z,4.17
2019-02-02T09:55:52.308Z,2.8
2019-02-02T10:01:47.386Z,3.48
2019-02-02T10:07:42.349Z,3.53
2019-02-02T10:13:37.336Z,4.98
2019-02-02T10:19:32.363Z,4.49
2019-02-02T10:25:27.328Z,3.63
2019-02-02T10:31:22.337Z,6.8
2019-02-02T10:37:17.335Z,14.44
2019-02-02T10:43:12.342Z,6.44
2019-02-02T10:49:07.384Z,5.91
2019-02-02T10:55:02.386Z,7.28
2019-02-02T11:00:57.341Z,7.2
2019-02-02T11:06:52.384Z,8.98
2019-02-02T11:12:47.416Z,8.17
2019-02-02T11:18:42.404Z,7.01
2019-02-02T11:24:37.591Z,6.49
2019-02-02T11:30:32.402Z,10.2
2019-02-02T11:36:27.387Z,15.84
2019-02-02T11:42:22.395Z,13.9
2019-02-02T11:48:17.400Z,11.54
2019-02-02T11:54:12.363Z,13.28
2019-02-02T12:00:07.371Z,27.36
2019-02-02T12:06:02.414Z,7.93
2019-02-02T12:11:57.375Z,2.2
2019-02-02T12:17:52.410Z,2.2
2019-02-02T12:23:47.410Z,1.49
2019-02-02T12:29:42.413Z,2.69
2019-02-02T12:35:37.387Z,3.08
2019-02-02T12:41:32.467Z,4.62
2019-02-02T12:47:27.398Z,5.94
2019-02-02T12:53:22.397Z,6.79
2019-02-02T12:59:17.424Z,4.53
2019-02-02T13:05:12.385Z,2.89
2019-02-02T13:11:07.417Z,3.06
2019-02-02T13:17:02.404Z,2.48
2019-02-02T13:22:57.422Z,2.36
2019-02-02T13:28:55.149Z,3.28
2019-02-02T13:34:47.418Z,3.1
2019-02-02T13:40:42.414Z,1.79
2019-02-02T13:46:37.470Z,1.25
2019-02-02T13:52:32.419Z,1.63
2019-02-02T13:58:27.438Z,1.75
2019-02-02T14:04:22.435Z,1.67
2019-02-02T14:10:17.488Z,10.05
2019-02-02T14:16:12.493Z,2
2019-02-02T14:22:07.462Z,1.8
2019-02-02T14:28:02.437Z,2.13
2019-02-02T14:33:57.449Z,1.74
2019-02-02T14:39:52.498Z,2.13
2019-02-02T14:45:47.555Z,2.94
2019-02-02T14:51:42.452Z,4.76
2019-02-02T14:57:37.453Z,3.76
2019-02-02T15:03:32.555Z,4.07
2019-02-02T15:09:27.515Z,6.44
2019-02-02T15:15:22.476Z,5.32
2019-02-02T15:21:17.508Z,2.38
2019-02-02T15:27:14.683Z,5.31
2019-02-02T15:33:07.502Z,5.99
2019-02-02T15:39:02.473Z,8.09
2019-02-02T15:44:57.494Z,11.74
2019-02-02T15:50:52.532Z,7.59
2019-02-02T15:56:47.554Z,3.28
2019-02-02T16:02:42.490Z,5.53
2019-02-02T16:08:37.489Z,4.79
2019-02-02T16:14:32.525Z,10.24
2019-02-02T16:20:27.525Z,9.82
2019-02-02T16:26:22.509Z,12.45
2019-02-02T16:32:19.796Z,8.97
2019-02-02T16:38:12.558Z,4.17
2019-02-02T16:44:07.560Z,5.73
2019-02-02T16:50:02.584Z,21.66
2019-02-02T16:55:57.545Z,7.11
2019-02-02T17:01:52.590Z,5.57
2019-02-02T17:07:47.548Z,4.07
2019-02-02T17:13:42.514Z,3.61
2019-02-02T17:19:37.530Z,8.42
2019-02-02T17:25:32.545Z,3.57
2019-02-02T17:31:27.557Z,2.36
2019-02-02T17:37:22.537Z,5
2019-02-02T17:43:17.526Z,4.74
2019-02-02T17:49:12.545Z,16.88
2019-02-02T17:55:07.579Z,7.69
2019-02-02T18:01:02.620Z,2.95
2019-02-02T18:06:57.581Z,3.47
2019-02-02T18:12:52.589Z,2.5
2019-02-02T18:18:47.559Z,1.82
2019-02-02T18:24:42.598Z,4.38
2019-02-02T18:30:37.564Z,4.53
2019-02-02T18:36:32.591Z,3.13
2019-02-02T18:42:27.600Z,1.21
2019-02-02T18:48:22.597Z,9.18
2019-02-02T18:54:17.604Z,1.82
2019-02-02T19:00:12.615Z,0.96
2019-02-02T19:06:07.657Z,1.64
2019-02-02T19:12:02.582Z,2.82
2019-02-02T19:17:57.595Z,4.48
2019-02-02T19:23:52.610Z,7.75
2019-02-02T19:29:47.645Z,6.8
2019-02-02T19:35:42.609Z,9.97
2019-02-02T19:41:37.612Z,11.16
2019-02-02T19:47:34.564Z,8.25
2019-02-02T19:53:27.652Z,8.16
2019-02-02T19:59:22.628Z,8.38
2019-02-02T20:05:27.895Z,6.87
2019-02-02T20:11:12.612Z,7.58
2019-02-02T20:17:07.685Z,6.66
2019-02-02T20:23:02.635Z,16.51
2019-02-02T20:28:57.642Z,9.72
2019-02-02T20:34:52.636Z,5.11
2019-02-02T20:40:47.628Z,5.35
2019-02-02T20:46:42.639Z,7.88
2019-02-02T20:52:46.888Z,8.66
2019-02-02T20:58:32.637Z,12.39
2019-02-02T21:04:27.702Z,10.64
2019-02-02T21:10:22.657Z,10.04
2019-02-02T21:16:17.697Z,10.57
2019-02-02T21:22:12.689Z,11.13
2019-02-02T21:28:07.659Z,12.09
2019-02-02T21:34:02.659Z,15.87
2019-02-02T21:39:57.666Z,12.75
2019-02-02T21:45:52.656Z,11.06
2019-02-02T21:51:47.686Z,10.34
2019-02-02T21:57:42.682Z,10.5
2019-02-02T22:03:37.758Z,8.76
2019-02-02T22:09:32.684Z,9.49
2019-02-02T22:15:27.698Z,9.13
2019-02-02T22:21:22.702Z,8.1
2019-02-02T22:27:17.686Z,9.8
2019-02-02T22:33:12.697Z,8.95
2019-02-02T22:39:07.700Z,9.21
2019-02-02T22:45:02.724Z,9.15
2019-02-02T22:50:57.701Z,10.2
2019-02-02T22:56:52.722Z,11.44
2019-02-02T23:02:47.714Z,11.18
2019-02-02T23:08:44.587Z,11.08
2019-02-02T23:14:40.505Z,9.84
2019-02-02T23:20:32.713Z,7.3
2019-02-02T23:26:27.726Z,7.05
2019-02-02T23:32:22.742Z,7.4
2019-02-02T23:38:17.723Z,10.88
2019-02-02T23:44:12.725Z,13.16
2019-02-02T23:50:07.767Z,12.8
2019-02-02T23:56:02.746Z,8.34
